createdAt,value
2018-09-01T00:01:00.698Z,65.50
2018-09-01T00:03:29.645Z,65.60
2018-09-01T00:05:58.638Z,65.80
2018-09-01T00:08:27.617Z,64.90
2018-09-01T00:10:56.556Z,66.60
2018-09-01T00:13:25.614Z,66.10
2018-09-01T00:15:54.556Z,66.10
2018-09-01T00:18:23.529Z,65.90
2018-09-01T00:20:52.465Z,66.10
2018-09-01T00:23:21.432Z,66.00
2018-09-01T00:25:50.374Z,65.90
2018-09-01T00:28:19.354Z,65.80
2018-09-01T00:30:48.288Z,66.00
2018-09-01T00:33:17.325Z,66.30
2018-09-01T00:35:46.266Z,66.10
2018-09-01T00:38:20.370Z,65.90
2018-09-01T00:40:49.293Z,65.80
2018-09-01T00:43:18.272Z,65.50
2018-09-01T00:45:47.200Z,65.80
2018-09-01T00:48:16.192Z,66.00
2018-09-01T00:50:45.104Z,65.90
2018-09-01T00:53:14.102Z,66.00
2018-09-01T00:55:43.029Z,66.10
2018-09-01T00:58:12.266Z,65.90
2018-09-01T01:00:41.449Z,65.80
2018-09-01T01:03:10.429Z,66.70
2018-09-01T01:05:39.391Z,65.90
2018-09-01T01:08:08.429Z,66.10
2018-09-01T01:10:37.369Z,66.40
2018-09-01T01:13:06.349Z,66.30
2018-09-01T01:15:35.328Z,66.30
2018-09-01T01:18:04.277Z,66.10
2018-09-01T01:20:33.224Z,65.80
2018-09-01T01:23:02.308Z,65.90
2018-09-01T01:25:31.326Z,65.90
2018-09-01T01:28:00.292Z,65.90
2018-09-01T01:30:29.235Z,65.90
2018-09-01T01:32:58.248Z,65.70
2018-09-01T01:35:27.254Z,66.00
2018-09-01T01:37:56.252Z,66.30
2018-09-01T01:40:25.262Z,66.40
2018-09-01T01:42:54.265Z,66.40
2018-09-01T01:45:23.309Z,66.40
2018-09-01T01:47:52.253Z,66.40
2018-09-01T01:50:21.210Z,66.10
2018-09-01T01:52:50.148Z,66.30
2018-09-01T01:55:19.124Z,67.20
2018-09-01T01:57:50.251Z,65.90
2018-09-01T02:00:19.273Z,65.90
2018-09-01T02:02:48.711Z,65.90
2018-09-01T02:05:21.749Z,65.90
2018-09-01T02:07:51.349Z,66.10
2018-09-01T02:10:20.337Z,66.10
2018-09-01T02:12:49.304Z,66.10
2018-09-01T02:15:18.312Z,66.10
2018-09-01T02:17:47.306Z,65.90
2018-09-01T02:20:16.323Z,66.00
2018-09-01T02:22:45.277Z,66.00
2018-09-01T02:25:14.245Z,66.10
2018-09-01T02:27:46.249Z,66.00
2018-09-01T02:30:15.310Z,65.90
2018-09-01T02:32:44.285Z,65.80
2018-09-01T02:35:13.257Z,65.70
2018-09-01T02:37:43.246Z,65.50
2018-09-01T02:40:12.293Z,65.60
2018-09-01T02:42:41.233Z,65.90
2018-09-01T02:45:10.298Z,65.90
2018-09-01T02:47:39.259Z,66.00
2018-09-01T02:50:08.309Z,65.90
2018-09-01T02:52:37.309Z,66.00
2018-09-01T02:55:06.684Z,65.70
2018-09-01T02:57:35.646Z,65.90
2018-09-01T03:00:09.089Z,66.10
2018-09-01T03:02:44.416Z,66.10
2018-09-01T03:05:14.733Z,66.00
2018-09-01T03:07:43.688Z,66.10
2018-09-01T03:10:12.713Z,65.90
2018-09-01T03:12:41.687Z,66.00
2018-09-01T03:15:10.689Z,65.90
2018-09-01T03:17:39.650Z,65.90
2018-09-01T03:20:08.637Z,65.90
2018-09-01T03:22:37.575Z,65.90
2018-09-01T03:25:07.089Z,66.10
2018-09-01T03:27:36.036Z,66.10
2018-09-01T03:30:05.869Z,66.10
2018-09-01T03:32:34.798Z,66.10
2018-09-01T03:35:03.762Z,66.10
2018-09-01T03:37:32.688Z,66.20
2018-09-01T03:40:01.630Z,66.10
2018-09-01T03:42:30.592Z,66.00
2018-09-01T03:44:59.603Z,65.70
2018-09-01T03:47:28.588Z,65.90
2018-09-01T03:49:57.606Z,65.80
2018-09-01T03:52:26.643Z,66.80
2018-09-01T03:54:55.568Z,65.90
2018-09-01T03:57:24.564Z,65.90
2018-09-01T03:59:53.508Z,65.30
2018-09-01T04:02:22.449Z,65.30
2018-09-01T04:04:51.370Z,65.50
2018-09-01T04:07:20.337Z,65.40
2018-09-01T04:09:49.275Z,65.50
2018-09-01T04:12:18.276Z,65.30
2018-09-01T04:14:47.228Z,65.10
2018-09-01T04:17:16.233Z,64.90
2018-09-01T04:19:45.190Z,65.00
2018-09-01T04:22:14.171Z,64.90
2018-09-01T04:24:43.113Z,64.80
2018-09-01T04:27:12.077Z,65.10
2018-09-01T04:29:41.013Z,65.10
2018-09-01T04:32:10.111Z,64.40
2018-09-01T04:34:39.115Z,64.70
2018-09-01T04:37:08.188Z,64.80
2018-09-01T04:39:37.184Z,64.60
2018-09-01T04:42:06.251Z,64.80
2018-09-01T04:44:35.206Z,64.80
2018-09-01T04:47:04.330Z,64.70
2018-09-01T04:49:33.253Z,64.40
2018-09-01T04:52:02.337Z,64.30
2018-09-01T04:54:31.275Z,64.20
2018-09-01T04:57:00.232Z,64.20
2018-09-01T04:59:29.217Z,64.10
2018-09-01T05:01:58.211Z,64.20
2018-09-01T05:04:27.153Z,63.70
2018-09-01T05:06:56.374Z,63.80
2018-09-01T05:09:25.517Z,63.60
2018-09-01T05:11:54.516Z,63.50
2018-09-01T05:14:23.509Z,63.50
2018-09-01T05:16:52.568Z,63.80
2018-09-01T05:19:21.589Z,64.00
2018-09-01T05:21:50.548Z,63.60
2018-09-01T05:24:19.493Z,63.60
2018-09-01T05:26:48.508Z,63.90
2018-09-01T05:29:17.469Z,63.50
2018-09-01T05:31:46.557Z,63.90
2018-09-01T05:34:15.772Z,63.50
2018-09-01T05:36:44.814Z,63.40
2018-09-01T05:39:13.709Z,63.80
2018-09-01T05:41:42.707Z,63.20
2018-09-01T05:44:11.658Z,63.50
2018-09-01T05:46:40.633Z,63.60
2018-09-01T05:49:09.626Z,63.30
2018-09-01T05:51:38.628Z,63.80
2018-09-01T05:54:07.665Z,63.70
2018-09-01T05:56:36.698Z,63.50
2018-09-01T05:59:06.151Z,63.20
2018-09-01T06:01:35.209Z,62.70
2018-09-01T06:04:04.190Z,62.50
2018-09-01T06:06:33.150Z,62.60
2018-09-01T06:09:02.104Z,62.50
2018-09-01T06:11:31.070Z,62.20
2018-09-01T06:14:00.105Z,62.40
2018-09-01T06:16:29.054Z,62.00
2018-09-01T06:18:58.155Z,62.00
2018-09-01T06:21:27.108Z,62.50
2018-09-01T06:23:56.199Z,62.70
2018-09-01T06:26:25.094Z,62.50
2018-09-01T06:29:24.750Z,62.70
2018-09-01T06:31:56.751Z,61.80
2018-09-01T06:34:25.770Z,61.80
2018-09-01T06:36:54.712Z,62.00
2018-09-01T06:39:23.749Z,62.30
2018-09-01T06:41:52.726Z,62.30
2018-09-01T06:44:21.733Z,61.80
2018-09-01T06:46:50.784Z,62.00
2018-09-01T06:49:19.932Z,62.20
2018-09-01T06:51:48.891Z,61.10
2018-09-01T06:54:17.908Z,60.70
2018-09-01T06:56:46.892Z,60.90
2018-09-01T06:59:15.908Z,61.40
2018-09-01T07:01:44.913Z,60.90
2018-09-01T07:04:13.928Z,60.80
2018-09-01T07:06:42.893Z,60.60
2018-09-01T07:09:11.893Z,60.70
2018-09-01T07:11:40.852Z,60.70
2018-09-01T07:14:09.869Z,60.70
2018-09-01T07:16:39.883Z,60.40
2018-09-01T07:19:08.852Z,60.20
2018-09-01T07:21:37.951Z,61.20
2018-09-01T07:24:07.029Z,60.40
2018-09-01T07:26:35.976Z,60.70
2018-09-01T07:29:04.978Z,60.30
2018-09-01T07:31:34.326Z,60.30
2018-09-01T07:34:02.974Z,60.40
2018-09-01T07:36:32.034Z,60.50
2018-09-01T07:39:01.022Z,60.50
2018-09-01T07:41:29.976Z,60.00
2018-09-01T07:43:58.968Z,59.90
2018-09-01T07:46:27.909Z,59.90
2018-09-01T07:48:56.909Z,60.10
2018-09-01T07:51:25.858Z,59.80
2018-09-01T07:53:54.833Z,60.10
2018-09-01T07:56:24.316Z,59.20
2018-09-01T07:58:53.365Z,59.20
2018-09-01T08:01:22.329Z,58.90
2018-09-01T08:03:51.308Z,58.70
2018-09-01T08:06:20.268Z,58.60
2018-09-01T08:08:49.250Z,58.90
2018-09-01T08:11:18.244Z,58.70
2018-09-01T08:13:47.703Z,58.40
2018-09-01T08:16:16.597Z,58.10
2018-09-01T08:18:45.670Z,58.10
2018-09-01T08:21:14.632Z,58.30
2018-09-01T08:23:43.672Z,57.70
2018-09-01T08:26:12.660Z,57.50
2018-09-01T08:28:41.635Z,57.70
2018-09-01T08:31:10.609Z,57.50
2018-09-01T08:33:39.740Z,57.50
2018-09-01T08:36:08.667Z,57.00
2018-09-01T08:38:39.237Z,57.30
2018-09-01T08:41:08.316Z,57.30
2018-09-01T08:43:37.377Z,57.00
2018-09-01T08:46:06.479Z,57.10
2018-09-01T08:48:35.513Z,56.70
2018-09-01T08:51:04.512Z,56.60
2018-09-01T08:53:33.465Z,55.70
2018-09-01T08:56:02.429Z,56.20
2018-09-01T08:58:33.308Z,55.90
2018-09-01T09:01:02.269Z,55.80
2018-09-01T09:03:33.331Z,55.20
2018-09-01T09:06:02.332Z,55.20
2018-09-01T09:08:31.328Z,55.30
2018-09-01T09:11:00.294Z,55.10
2018-09-01T09:13:29.392Z,55.20
2018-09-01T09:15:58.410Z,55.30
2018-09-01T09:18:27.412Z,55.30
2018-09-01T09:20:56.392Z,55.00
2018-09-01T09:23:25.314Z,54.70
2018-09-01T09:25:54.278Z,54.50
2018-09-01T09:28:23.209Z,54.30
2018-09-01T09:30:52.214Z,54.30
2018-09-01T09:33:21.218Z,54.00
2018-09-01T09:35:50.233Z,54.20
2018-09-01T09:38:19.197Z,54.10
2018-09-01T09:40:48.177Z,53.60
2018-09-01T09:43:17.240Z,53.40
2018-09-01T09:45:46.358Z,53.00
2018-09-01T09:48:15.450Z,53.10
2018-09-01T09:50:44.463Z,53.00
2018-09-01T09:53:13.387Z,53.10
2018-09-01T09:55:42.389Z,53.20
2018-09-01T09:58:11.436Z,53.20
2018-09-01T10:00:45.676Z,53.50
2018-09-01T10:03:15.050Z,53.20
2018-09-01T10:05:44.294Z,52.90
2018-09-01T10:08:13.248Z,52.50
2018-09-01T10:10:42.213Z,52.50
2018-09-01T10:13:11.134Z,52.70
2018-09-01T10:15:40.083Z,52.20
2018-09-01T10:18:09.065Z,52.30
2018-09-01T10:20:38.272Z,52.10
2018-09-01T10:23:07.129Z,52.00
2018-09-01T10:25:36.100Z,51.50
2018-09-01T10:28:05.050Z,51.00
2018-09-01T10:30:34.029Z,51.80
2018-09-01T10:33:03.053Z,51.80
2018-09-01T10:35:32.121Z,52.00
2018-09-01T10:38:01.103Z,52.20
2018-09-01T10:40:30.055Z,52.10
2018-09-01T10:42:58.989Z,51.60
2018-09-01T10:45:27.957Z,52.00
2018-09-01T10:47:56.923Z,51.70
2018-09-01T10:50:25.896Z,51.60
2018-09-01T10:52:54.838Z,51.30
2018-09-01T10:55:23.809Z,51.40
2018-09-01T10:57:52.819Z,50.90
2018-09-01T11:00:22.153Z,50.70
2018-09-01T11:02:52.406Z,50.60
2018-09-01T11:05:21.835Z,51.00
2018-09-01T11:07:50.853Z,50.70
2018-09-01T11:10:19.793Z,50.50
2018-09-01T11:12:48.773Z,50.40
2018-09-01T11:15:17.770Z,51.10
2018-09-01T11:17:46.831Z,51.10
2018-09-01T11:20:15.984Z,51.10
2018-09-01T11:22:45.006Z,51.50
2018-09-01T11:25:13.993Z,51.00
2018-09-01T11:27:43.040Z,50.90
2018-09-01T11:30:12.512Z,50.90
2018-09-01T11:32:41.688Z,51.10
2018-09-01T11:35:10.872Z,50.30
2018-09-01T11:37:39.911Z,50.10
2018-09-01T11:40:08.851Z,49.80
2018-09-01T11:42:37.998Z,49.50
2018-09-01T11:45:06.853Z,48.90
2018-09-01T11:47:35.830Z,48.80
2018-09-01T11:50:05.641Z,48.50
2018-09-01T11:52:34.657Z,48.30
2018-09-01T11:55:05.412Z,48.10
2018-09-01T11:57:34.433Z,47.80
2018-09-01T12:00:05.420Z,47.60
2018-09-01T12:02:34.513Z,47.70
2018-09-01T12:05:03.452Z,47.90
2018-09-01T12:07:32.452Z,47.80
2018-09-01T12:10:01.389Z,47.60
2018-09-01T12:12:30.512Z,47.50
2018-09-01T12:14:59.607Z,47.60
2018-09-01T12:17:29.456Z,47.80
2018-09-01T12:19:58.390Z,47.70
2018-09-01T12:22:27.473Z,47.70
2018-09-01T12:24:56.412Z,47.80
2018-09-01T12:27:25.408Z,47.90
2018-09-01T12:29:54.340Z,47.80
2018-09-01T12:32:23.372Z,48.40
2018-09-01T12:34:52.373Z,48.30
2018-09-01T12:37:21.416Z,48.50
2018-09-01T12:39:50.348Z,48.50
2018-09-01T12:42:19.454Z,48.60
2018-09-01T12:44:48.417Z,48.70
2018-09-01T12:47:17.432Z,48.40
2018-09-01T12:49:46.396Z,49.00
2018-09-01T12:52:15.412Z,48.50
2018-09-01T12:54:44.432Z,48.20
2018-09-01T12:57:13.457Z,48.00
2018-09-01T12:59:42.708Z,48.00
2018-09-01T13:02:15.243Z,47.70
2018-09-01T13:04:44.266Z,48.10
2018-09-01T13:07:13.209Z,47.90
2018-09-01T13:09:42.133Z,47.90
2018-09-01T13:12:11.216Z,47.70
2018-09-01T13:14:40.217Z,47.70
2018-09-01T13:17:09.182Z,47.70
2018-09-01T13:19:38.207Z,47.70
2018-09-01T13:22:07.235Z,47.40
2018-09-01T13:24:36.208Z,47.30
2018-09-01T13:27:05.292Z,47.80
2018-09-01T13:29:34.312Z,46.80
2018-09-01T13:32:03.456Z,46.80
2018-09-01T13:34:32.618Z,46.80
2018-09-01T13:37:01.463Z,47.10
2018-09-01T13:39:30.710Z,47.00
2018-09-01T13:41:59.770Z,47.10
2018-09-01T13:44:28.741Z,47.10
2018-09-01T13:46:57.711Z,47.10
2018-09-01T13:49:26.761Z,47.10
2018-09-01T13:51:55.680Z,47.00
2018-09-01T13:54:24.652Z,46.80
2018-09-01T13:56:53.576Z,46.60
2018-09-01T13:59:22.565Z,46.70
2018-09-01T14:01:51.575Z,46.80
2018-09-01T14:04:20.621Z,46.50
2018-09-01T14:06:49.540Z,46.60
2018-09-01T14:09:18.489Z,46.30
2018-09-01T14:11:47.456Z,45.90
2018-09-01T14:14:16.482Z,46.60
2018-09-01T14:16:45.417Z,46.70
2018-09-01T14:19:14.553Z,46.60
2018-09-01T14:21:43.604Z,46.40
2018-09-01T14:24:12.572Z,46.20
2018-09-01T14:26:41.505Z,46.10
2018-09-01T14:29:10.489Z,46.00
2018-09-01T14:31:39.392Z,46.00
2018-09-01T14:34:08.454Z,46.40
2018-09-01T14:36:37.527Z,45.80
2018-09-01T14:39:08.923Z,46.00
2018-09-01T14:41:37.894Z,45.60
2018-09-01T14:44:06.878Z,45.90
2018-09-01T14:46:35.852Z,46.20
2018-09-01T14:49:04.772Z,46.00
2018-09-01T14:51:33.718Z,45.80
2018-09-01T14:54:02.684Z,46.10
2018-09-01T14:56:31.596Z,46.50
2018-09-01T14:59:00.660Z,46.20
2018-09-01T15:01:29.560Z,46.40
2018-09-01T15:03:58.497Z,45.90
2018-09-01T15:06:27.525Z,46.10
2018-09-01T15:08:56.624Z,46.10
2018-09-01T15:11:25.537Z,46.00
2018-09-01T15:13:54.625Z,46.00
2018-09-01T15:16:23.525Z,46.20
2018-09-01T15:18:52.637Z,46.40
2018-09-01T15:21:21.565Z,46.30
2018-09-01T15:23:50.609Z,46.20
2018-09-01T15:26:19.533Z,46.10
2018-09-01T15:28:48.582Z,45.90
2018-09-01T15:31:17.542Z,46.10
2018-09-01T15:33:47.073Z,46.10
2018-09-01T15:36:16.056Z,46.20
2018-09-01T15:38:45.017Z,46.00
2018-09-01T15:41:14.050Z,46.00
2018-09-01T15:43:43.049Z,46.10
2018-09-01T15:46:12.003Z,46.40
2018-09-01T15:48:40.926Z,46.10
2018-09-01T15:51:09.943Z,45.90
2018-09-01T15:53:38.868Z,46.00
2018-09-01T15:56:08.680Z,46.00
2018-09-01T15:58:37.791Z,46.20
2018-09-01T16:01:06.827Z,45.40
2018-09-01T16:03:35.809Z,46.10
2018-09-01T16:06:05.101Z,46.30
2018-09-01T16:08:34.089Z,46.00
2018-09-01T16:11:03.160Z,45.90
2018-09-01T16:13:32.080Z,46.10
2018-09-01T16:16:01.117Z,46.00
2018-09-01T16:18:30.111Z,46.00
2018-09-01T16:20:59.172Z,46.00
2018-09-01T16:23:28.127Z,45.90
2018-09-01T16:25:57.107Z,46.20
2018-09-01T16:28:26.087Z,46.30
2018-09-01T16:30:55.741Z,46.60
2018-09-01T16:33:24.645Z,47.00
2018-09-01T16:35:53.617Z,46.80
2018-09-01T16:38:22.526Z,46.50
2018-09-01T16:40:51.530Z,46.60
2018-09-01T16:43:20.490Z,46.60
2018-09-01T16:45:49.450Z,46.60
2018-09-01T16:48:18.368Z,47.20
2018-09-01T16:50:47.328Z,46.80
2018-09-01T16:53:16.297Z,46.60
2018-09-01T16:55:45.236Z,46.30
2018-09-01T16:58:14.161Z,46.60
2018-09-01T17:00:43.232Z,46.70
2018-09-01T17:03:12.140Z,46.50
2018-09-01T17:05:41.077Z,46.30
2018-09-01T17:08:10.065Z,46.40
2018-09-01T17:10:39.012Z,46.30
2018-09-01T17:13:07.932Z,46.60
2018-09-01T17:15:36.966Z,46.60
2018-09-01T17:18:05.996Z,46.50
2018-09-01T17:20:34.940Z,46.50
2018-09-01T17:23:03.880Z,46.70
2018-09-01T17:25:33.516Z,46.50
2018-09-01T17:28:02.517Z,46.30
2018-09-01T17:30:32.391Z,46.30
2018-09-01T17:33:01.322Z,46.30
2018-09-01T17:35:30.313Z,46.50
2018-09-01T17:37:59.342Z,46.60
2018-09-01T17:40:28.305Z,46.70
2018-09-01T17:42:57.390Z,47.10
2018-09-01T17:45:26.357Z,46.90
2018-09-01T17:47:55.267Z,47.10
2018-09-01T17:50:24.201Z,47.20
2018-09-01T17:52:53.120Z,47.30
2018-09-01T17:55:22.194Z,47.20
2018-09-01T17:57:51.342Z,47.20
2018-09-01T18:00:20.370Z,47.30
2018-09-01T18:02:49.296Z,47.80
2018-09-01T18:05:18.257Z,47.40
2018-09-01T18:07:47.183Z,47.50
2018-09-01T18:10:16.233Z,47.30
2018-09-01T18:12:45.210Z,47.30
2018-09-01T18:15:14.125Z,47.30
2018-09-01T18:17:43.167Z,47.60
2018-09-01T18:20:12.089Z,47.10
2018-09-01T18:22:41.066Z,47.70
2018-09-01T18:25:09.979Z,47.90
2018-09-01T18:27:38.926Z,48.00
2018-09-01T18:30:08.413Z,48.20
2018-09-01T18:32:37.377Z,48.30
2018-09-01T18:35:07.341Z,48.40
2018-09-01T18:37:36.613Z,48.40
2018-09-01T18:40:05.701Z,48.50
2018-09-01T18:42:34.908Z,48.60
2018-09-01T18:45:03.817Z,48.60
2018-09-01T18:47:32.847Z,48.70
2018-09-01T18:50:01.937Z,48.70
2018-09-01T18:52:30.892Z,49.00
2018-09-01T18:54:59.890Z,48.80
2018-09-01T18:57:28.836Z,49.10
2018-09-01T18:59:57.737Z,49.30
2018-09-01T19:02:26.764Z,49.40
2018-09-01T19:04:55.741Z,50.00
2018-09-01T19:07:24.689Z,49.40
2018-09-01T19:09:53.585Z,49.70
2018-09-01T19:12:22.528Z,49.70
2018-09-01T19:14:51.438Z,49.80
2018-09-01T19:17:20.373Z,49.70
2018-09-01T19:19:49.285Z,49.80
2018-09-01T19:22:18.265Z,49.90
2018-09-01T19:24:47.321Z,49.90
2018-09-01T19:27:16.708Z,49.90
2018-09-01T19:29:45.653Z,49.90
2018-09-01T19:32:14.644Z,49.90
2018-09-01T19:34:43.712Z,49.90
2018-09-01T19:37:12.642Z,50.10
2018-09-01T19:39:41.553Z,50.00
2018-09-01T19:42:10.501Z,50.30
2018-09-01T19:44:39.417Z,50.50
2018-09-01T19:47:08.545Z,50.30
2018-09-01T19:49:37.491Z,50.40
2018-09-01T19:52:06.647Z,50.90
2018-09-01T19:54:35.558Z,50.40
2018-09-01T19:57:04.530Z,50.20
2018-09-01T19:59:33.444Z,50.10
2018-09-01T20:02:02.400Z,50.20
2018-09-01T20:04:31.332Z,50.40
2018-09-01T20:07:00.280Z,50.60
2018-09-01T20:09:29.215Z,50.50
2018-09-01T20:11:58.157Z,50.50
2018-09-01T20:14:27.176Z,50.60
2018-09-01T20:16:56.141Z,50.70
2018-09-01T20:19:25.291Z,50.70
2018-09-01T20:21:54.280Z,50.70
2018-09-01T20:24:23.205Z,50.80
2018-09-01T20:26:52.122Z,50.90
2018-09-01T20:29:21.081Z,51.00
2018-09-01T20:31:50.078Z,50.90
2018-09-01T20:34:19.029Z,50.90
2018-09-01T20:36:47.949Z,51.00
2018-09-01T20:39:16.981Z,51.00
2018-09-01T20:41:45.892Z,50.80
2018-09-01T20:44:14.884Z,50.90
2018-09-01T20:46:43.966Z,51.00
2018-09-01T20:49:13.432Z,51.10
2018-09-01T20:51:42.344Z,50.80
2018-09-01T20:54:11.302Z,50.90
2018-09-01T20:56:40.269Z,51.10
2018-09-01T20:59:09.211Z,51.10
2018-09-01T21:01:38.112Z,51.30
2018-09-01T21:04:07.198Z,51.30
2018-09-01T21:06:36.109Z,51.20
2018-09-01T21:09:06.028Z,51.10
2018-09-01T21:11:35.021Z,51.20
2018-09-01T21:14:03.990Z,51.00
2018-09-01T21:16:32.935Z,50.90
2018-09-01T21:19:01.996Z,50.70
2018-09-01T21:21:30.904Z,50.70
2018-09-01T21:23:59.866Z,50.80
2018-09-01T21:26:28.856Z,50.90
2018-09-01T21:28:57.740Z,51.00
2018-09-01T21:31:26.669Z,50.90
2018-09-01T21:33:55.628Z,50.60
2018-09-01T21:36:24.873Z,50.60
2018-09-01T21:38:53.944Z,50.80
2018-09-01T21:41:22.889Z,50.80
2018-09-01T21:43:51.961Z,50.90
2018-09-01T21:46:20.864Z,50.80
2018-09-01T21:48:49.902Z,50.90
2018-09-01T21:51:18.841Z,50.70
2018-09-01T21:53:47.785Z,50.50
2018-09-01T21:56:16.785Z,50.80
2018-09-01T21:58:47.032Z,50.90
2018-09-01T22:01:27.792Z,50.60
2018-09-01T22:03:56.748Z,50.60
2018-09-01T22:06:25.660Z,50.60
2018-09-01T22:08:54.608Z,50.60
2018-09-01T22:11:23.606Z,50.60
2018-09-01T22:13:52.553Z,50.30
2018-09-01T22:16:21.564Z,50.50
2018-09-01T22:18:50.504Z,50.90
2018-09-01T22:21:19.453Z,50.50
2018-09-01T22:23:48.453Z,50.40
2018-09-01T22:26:17.377Z,50.40
2018-09-01T22:28:46.528Z,50.50
2018-09-01T22:31:15.633Z,50.40
2018-09-01T22:33:44.618Z,50.30
2018-09-01T22:36:13.617Z,50.50
2018-09-01T22:38:42.624Z,50.60
2018-09-01T22:41:11.618Z,50.80
2018-09-01T22:43:40.564Z,50.60
2018-09-01T22:46:09.495Z,50.40
2018-09-01T22:48:38.396Z,50.40
2018-09-01T22:51:07.350Z,50.70
2018-09-01T22:53:36.249Z,50.50
2018-09-01T22:56:05.362Z,50.70
2018-09-01T22:58:34.353Z,50.80
2018-09-01T23:01:03.314Z,50.80
2018-09-01T23:03:32.228Z,50.60
2018-09-01T23:06:01.177Z,50.50
2018-09-01T23:08:30.126Z,51.00
2018-09-01T23:10:59.064Z,50.50
2018-09-01T23:13:27.968Z,50.70
2018-09-01T23:15:56.888Z,50.50
2018-09-01T23:18:25.809Z,50.60
2018-09-01T23:20:54.857Z,50.50
2018-09-01T23:23:23.785Z,50.60
2018-09-01T23:25:52.744Z,50.80
2018-09-01T23:28:21.665Z,50.90
2018-09-01T23:30:50.629Z,51.00
2018-09-01T23:33:19.550Z,51.00
2018-09-01T23:35:48.550Z,51.00
2018-09-01T23:38:17.521Z,51.00
2018-09-01T23:40:46.553Z,51.00
2018-09-01T23:43:15.485Z,50.90
2018-09-01T23:45:44.463Z,51.00
2018-09-01T23:48:13.379Z,51.60
2018-09-01T23:50:42.338Z,50.90
2018-09-01T23:53:11.245Z,50.90
2018-09-01T23:55:40.188Z,51.00
2018-09-01T23:58:09.090Z,51.20
